createdAt,value
2022-10-22T00:01:49.389Z,5.10
2022-10-22T00:04:16.270Z,4.97
2022-10-22T00:06:45.101Z,5.57
2022-10-22T00:09:13.496Z,5.00
2022-10-22T00:11:41.466Z,4.90
2022-10-22T00:14:08.827Z,5.03
2022-10-22T00:16:35.766Z,4.80
2022-10-22T00:19:03.838Z,4.72
2022-10-22T00:21:30.874Z,4.47
2022-10-22T00:23:57.699Z,4.90
2022-10-22T00:26:24.621Z,5.20
2022-10-22T00:28:51.767Z,4.28
2022-10-22T00:31:20.154Z,5.05
2022-10-22T00:33:48.200Z,4.80
2022-10-22T00:36:17.327Z,4.75
2022-10-22T00:38:44.128Z,4.63
2022-10-22T00:41:11.006Z,4.85
2022-10-22T00:44:04.115Z,4.35
2022-10-22T00:46:30.964Z,4.35
2022-10-22T00:49:02.755Z,4.30
2022-10-22T00:51:33.975Z,3.90
2022-10-22T00:54:06.912Z,4.40
2022-10-22T00:56:33.894Z,4.20
2022-10-22T00:59:04.008Z,4.00
2022-10-22T01:01:32.509Z,4.68
2022-10-22T01:04:00.177Z,4.28
2022-10-22T01:06:36.239Z,4.43
2022-10-22T01:09:24.410Z,4.20
2022-10-22T01:12:03.008Z,4.43
2022-10-22T01:14:58.818Z,3.60
2022-10-22T01:17:36.158Z,4.05
2022-10-22T01:20:21.113Z,3.83
2022-10-22T01:23:02.800Z,3.75
2022-10-22T01:25:57.966Z,3.55
2022-10-22T01:28:37.028Z,3.83
2022-10-22T01:31:05.779Z,3.70
2022-10-22T01:33:33.846Z,3.83
2022-10-22T01:36:01.473Z,3.83
2022-10-22T01:38:29.288Z,3.78
2022-10-22T01:40:57.558Z,3.58
2022-10-22T01:43:24.405Z,3.58
2022-10-22T01:45:56.535Z,3.78
2022-10-22T01:49:12.069Z,3.28
2022-10-22T01:51:52.835Z,3.42
2022-10-22T01:54:29.799Z,3.50
2022-10-22T01:57:09.470Z,3.53
2022-10-22T02:00:08.486Z,3.33
2022-10-22T02:02:52.709Z,3.30
2022-10-22T02:05:25.514Z,3.05
2022-10-22T02:08:14.830Z,3.15
2022-10-22T02:10:46.246Z,3.17
2022-10-22T02:13:18.506Z,3.75
2022-10-22T02:15:47.055Z,3.22
2022-10-22T02:18:15.494Z,3.33
2022-10-22T02:20:42.825Z,3.10
2022-10-22T02:23:11.377Z,3.38
2022-10-22T02:25:47.589Z,3.25
2022-10-22T02:28:34.884Z,2.97
2022-10-22T02:31:12.000Z,3.13
2022-10-22T02:33:45.795Z,3.10
2022-10-22T02:36:13.336Z,2.95
2022-10-22T02:38:42.029Z,2.95
2022-10-22T02:41:09.469Z,3.05
2022-10-22T02:43:42.713Z,3.00
2022-10-22T02:46:11.169Z,3.08
2022-10-22T02:48:38.337Z,3.15
2022-10-22T02:51:05.279Z,3.00
2022-10-22T02:53:32.537Z,2.97
2022-10-22T02:55:59.820Z,2.90
2022-10-22T02:58:26.757Z,2.40
2022-10-22T03:00:53.729Z,2.67
2022-10-22T03:03:20.721Z,2.70
2022-10-22T03:05:47.630Z,2.88
2022-10-22T03:08:14.574Z,3.00
2022-10-22T03:10:41.417Z,2.53
2022-10-22T03:13:08.344Z,3.00
2022-10-22T03:15:35.201Z,2.45
2022-10-22T03:18:02.149Z,2.55
2022-10-22T03:20:29.098Z,2.67
2022-10-22T03:22:56.921Z,2.70
2022-10-22T03:25:27.154Z,2.60
2022-10-22T03:27:56.267Z,2.60
2022-10-22T03:30:23.152Z,2.65
2022-10-22T03:32:50.170Z,2.78
2022-10-22T03:35:17.153Z,2.17
2022-10-22T03:37:44.184Z,2.40
2022-10-22T03:40:11.883Z,2.40
2022-10-22T03:42:39.479Z,2.50
2022-10-22T03:45:07.197Z,2.53
2022-10-22T03:47:34.527Z,2.60
2022-10-22T03:50:01.346Z,2.47
2022-10-22T03:52:28.349Z,2.28
2022-10-22T03:54:55.310Z,2.33
2022-10-22T03:57:22.153Z,2.65
2022-10-22T03:59:49.108Z,2.38
2022-10-22T04:02:15.988Z,2.50
2022-10-22T04:04:42.843Z,2.13
2022-10-22T04:07:09.738Z,2.53
2022-10-22T04:09:37.303Z,2.25
2022-10-22T04:12:06.633Z,2.22
2022-10-22T04:14:33.854Z,2.17
2022-10-22T04:17:00.807Z,2.30
2022-10-22T04:19:27.639Z,2.10
2022-10-22T04:21:54.488Z,2.00
2022-10-22T04:24:21.772Z,2.15
2022-10-22T04:26:48.643Z,2.40
2022-10-22T04:29:16.372Z,2.10
2022-10-22T04:31:43.551Z,1.80
2022-10-22T04:34:10.484Z,2.10
2022-10-22T04:36:37.651Z,2.38
2022-10-22T04:39:05.246Z,2.35
2022-10-22T04:41:38.204Z,1.85
2022-10-22T04:44:06.164Z,1.90
2022-10-22T04:46:34.511Z,2.28
2022-10-22T04:49:03.942Z,2.17
2022-10-22T04:51:31.023Z,2.00
2022-10-22T04:53:58.328Z,2.08
2022-10-22T04:56:28.122Z,2.05
2022-10-22T04:58:57.831Z,1.65
2022-10-22T05:01:27.659Z,2.10
2022-10-22T05:03:56.703Z,2.00
2022-10-22T05:06:24.603Z,1.98
2022-10-22T05:08:57.478Z,1.77
2022-10-22T05:11:28.403Z,1.67
2022-10-22T05:13:59.966Z,2.13
2022-10-22T05:16:28.835Z,1.65
2022-10-22T05:18:56.105Z,1.90
2022-10-22T05:21:23.033Z,1.70
2022-10-22T05:23:51.376Z,2.10
2022-10-22T05:26:21.124Z,2.17
2022-10-22T05:28:49.257Z,1.73
2022-10-22T05:31:17.536Z,1.65
2022-10-22T05:33:45.701Z,1.80
2022-10-22T05:36:18.628Z,1.77
2022-10-22T05:38:45.870Z,2.10
2022-10-22T05:41:18.819Z,2.08
2022-10-22T05:43:46.623Z,1.90
2022-10-22T05:46:19.962Z,2.10
2022-10-22T05:51:17.993Z,1.60
2022-10-22T05:53:44.928Z,1.90
2022-10-22T05:56:15.068Z,1.92
2022-10-22T05:58:45.997Z,2.17
2022-10-22T06:01:16.708Z,2.25
2022-10-22T06:03:44.650Z,2.10
2022-10-22T06:06:42.884Z,2.10
2022-10-22T06:09:17.911Z,2.20
2022-10-22T06:11:45.814Z,2.20
2022-10-22T06:14:13.101Z,2.35
2022-10-22T06:16:40.850Z,2.10
2022-10-22T06:19:09.305Z,1.83
2022-10-22T06:21:36.210Z,2.08
2022-10-22T06:24:05.526Z,1.90
2022-10-22T06:26:32.521Z,2.08
2022-10-22T06:28:59.618Z,2.15
2022-10-22T06:31:27.510Z,2.13
2022-10-22T06:33:54.788Z,1.80
2022-10-22T06:36:23.632Z,2.45
2022-10-22T06:38:54.870Z,1.83
2022-10-22T06:41:25.745Z,1.60
2022-10-22T06:43:57.354Z,1.80
2022-10-22T06:46:25.210Z,1.90
2022-10-22T06:48:54.579Z,2.08
2022-10-22T06:51:21.563Z,2.00
2022-10-22T06:53:48.963Z,1.92
2022-10-22T06:56:18.702Z,1.85
2022-10-22T06:58:49.899Z,1.75
2022-10-22T07:01:19.740Z,1.83
2022-10-22T07:03:47.263Z,1.67
2022-10-22T07:06:15.124Z,1.92
2022-10-22T07:08:42.557Z,1.85
2022-10-22T07:11:24.005Z,1.73
2022-10-22T07:13:51.739Z,1.83
2022-10-22T07:16:18.959Z,2.05
2022-10-22T07:18:47.157Z,1.98
2022-10-22T07:21:15.590Z,2.83
2022-10-22T07:23:42.731Z,2.00
2022-10-22T07:26:11.981Z,1.70
2022-10-22T07:28:41.063Z,2.30
2022-10-22T07:31:09.655Z,1.98
2022-10-22T07:33:37.629Z,2.85
2022-10-22T07:36:07.987Z,1.63
2022-10-22T07:38:36.286Z,1.65
2022-10-22T07:41:03.714Z,1.75
2022-10-22T07:43:30.612Z,2.20
2022-10-22T07:45:57.525Z,2.03
2022-10-22T07:48:24.547Z,2.08
2022-10-22T07:50:51.804Z,1.95
2022-10-22T07:53:18.727Z,1.70
2022-10-22T07:55:49.135Z,1.65
2022-10-22T07:58:17.265Z,1.52
2022-10-22T08:00:44.848Z,1.80
2022-10-22T08:03:12.822Z,2.35
2022-10-22T08:05:39.880Z,2.40
2022-10-22T08:08:07.455Z,2.80
2022-10-22T08:10:35.007Z,2.70
2022-10-22T08:13:01.992Z,2.88
2022-10-22T08:15:29.053Z,3.20
2022-10-22T08:17:55.865Z,2.83
2022-10-22T08:20:22.931Z,2.60
2022-10-22T08:22:49.796Z,2.60
2022-10-22T08:25:18.219Z,2.30
2022-10-22T08:27:45.656Z,2.63
2022-10-22T08:30:13.394Z,2.28
2022-10-22T08:32:40.880Z,2.60
2022-10-22T08:35:08.250Z,3.13
2022-10-22T08:37:35.217Z,2.97
2022-10-22T08:40:02.418Z,2.90
2022-10-22T08:43:01.757Z,2.85
2022-10-22T08:46:04.244Z,2.97
2022-10-22T08:48:36.506Z,2.70
2022-10-22T08:51:03.648Z,3.13
2022-10-22T08:53:44.670Z,3.50
2022-10-22T08:56:11.579Z,3.13
2022-10-22T08:58:40.560Z,3.50
2022-10-22T09:01:31.639Z,3.10
2022-10-22T09:04:25.499Z,4.13
2022-10-22T09:06:54.794Z,3.90
2022-10-22T09:09:21.855Z,3.72
2022-10-22T09:11:51.859Z,3.40
2022-10-22T09:14:22.107Z,3.55
2022-10-22T09:17:28.407Z,3.30
2022-10-22T09:20:17.060Z,3.80
2022-10-22T09:23:05.516Z,7.03
2022-10-22T09:25:35.801Z,18.92
2022-10-22T09:28:03.358Z,18.98
2022-10-22T09:30:34.433Z,17.98
2022-10-22T09:33:10.354Z,24.27
2022-10-22T09:35:58.804Z,34.78
2022-10-22T09:38:28.550Z,26.85
2022-10-22T09:40:58.089Z,20.73
2022-10-22T09:43:25.299Z,17.15
2022-10-22T09:46:04.655Z,16.60
2022-10-22T09:48:34.767Z,15.57
2022-10-22T09:51:22.185Z,15.55
2022-10-22T09:53:58.517Z,16.17
2022-10-22T09:56:36.861Z,16.73
2022-10-22T09:59:04.154Z,14.60
2022-10-22T10:01:40.984Z,13.75
2022-10-22T10:04:13.186Z,13.85
2022-10-22T10:06:42.615Z,13.40
2022-10-22T10:09:21.521Z,14.80
2022-10-22T10:12:03.303Z,13.98
2022-10-22T10:14:59.506Z,12.98
2022-10-22T10:17:29.500Z,12.88
2022-10-22T10:20:03.860Z,13.77
2022-10-22T10:22:47.158Z,12.53
2022-10-22T10:25:26.959Z,12.68
2022-10-22T10:28:00.231Z,13.75
2022-10-22T10:30:27.486Z,13.48
2022-10-22T10:33:10.387Z,12.05
2022-10-22T10:35:49.149Z,13.05
2022-10-22T10:38:24.725Z,12.40
2022-10-22T10:41:17.348Z,12.38
2022-10-22T10:44:14.837Z,13.73
2022-10-22T10:47:08.969Z,13.35
2022-10-22T10:49:36.990Z,13.48
2022-10-22T10:52:20.511Z,12.18
2022-10-22T10:55:00.750Z,13.57
2022-10-22T10:57:45.308Z,12.48
2022-10-22T11:00:22.416Z,12.00
2022-10-22T11:03:01.593Z,12.52
2022-10-22T11:05:30.848Z,12.02
2022-10-22T11:08:21.557Z,12.48
2022-10-22T11:10:58.673Z,12.02
2022-10-22T11:13:41.161Z,11.52
2022-10-22T11:16:37.287Z,11.25
2022-10-22T11:19:22.770Z,11.20
2022-10-22T11:22:15.333Z,11.00
2022-10-22T11:24:54.263Z,11.23
2022-10-22T11:27:32.064Z,10.80
2022-10-22T11:30:14.215Z,9.90
2022-10-22T11:32:44.189Z,10.85
2022-10-22T11:35:25.662Z,9.75
2022-10-22T11:37:55.976Z,9.73
2022-10-22T11:40:43.100Z,10.27
2022-10-22T11:43:25.513Z,10.50
2022-10-22T11:46:17.702Z,10.38
2022-10-22T11:48:44.793Z,9.35
2022-10-22T11:51:35.661Z,9.43
2022-10-22T11:54:43.973Z,9.10
2022-10-22T11:57:16.949Z,9.68
2022-10-22T12:00:00.788Z,8.95
2022-10-22T12:02:44.571Z,8.60
2022-10-22T12:05:24.397Z,9.20
2022-10-22T12:07:58.501Z,8.73
2022-10-22T12:10:35.599Z,8.52
2022-10-22T12:13:18.177Z,8.90
2022-10-22T12:15:52.285Z,9.27
2022-10-22T12:18:19.299Z,8.40
2022-10-22T12:20:51.385Z,8.93
2022-10-22T12:23:18.580Z,8.20
2022-10-22T12:25:45.465Z,8.52
2022-10-22T12:28:13.386Z,8.80
2022-10-22T12:30:41.457Z,7.68
2022-10-22T12:33:19.651Z,8.40
2022-10-22T12:35:49.081Z,8.23
2022-10-22T12:38:22.231Z,8.07
2022-10-22T12:40:51.022Z,8.20
2022-10-22T12:43:23.799Z,8.45
2022-10-22T12:45:51.812Z,8.07
2022-10-22T12:48:20.592Z,8.23
2022-10-22T12:50:52.995Z,8.35
2022-10-22T12:53:25.344Z,8.05
2022-10-22T12:55:54.560Z,7.95
2022-10-22T12:58:26.862Z,7.85
2022-10-22T13:00:59.273Z,7.70
2022-10-22T13:03:49.904Z,7.40
2022-10-22T13:06:19.987Z,7.72
2022-10-22T13:09:07.513Z,7.47
2022-10-22T13:11:49.479Z,8.75
2022-10-22T13:14:26.713Z,8.15
2022-10-22T13:17:19.183Z,8.30
2022-10-22T13:19:55.227Z,10.25
2022-10-22T13:22:31.326Z,9.75
2022-10-22T13:25:03.693Z,9.43
2022-10-22T13:27:31.410Z,9.55
2022-10-22T13:30:02.849Z,9.45
2022-10-22T13:32:33.755Z,9.13
2022-10-22T13:35:02.864Z,10.05
2022-10-22T13:37:32.608Z,8.95
2022-10-22T13:39:59.520Z,8.65
2022-10-22T13:42:26.365Z,8.68
2022-10-22T13:44:53.347Z,8.05
2022-10-22T13:47:29.502Z,9.07
2022-10-22T13:50:00.516Z,7.97
2022-10-22T13:52:36.615Z,7.45
2022-10-22T13:55:17.428Z,7.75
2022-10-22T13:57:44.555Z,8.00
2022-10-22T14:00:16.948Z,7.53
2022-10-22T14:02:46.585Z,7.65
2022-10-22T14:05:14.322Z,7.55
2022-10-22T14:07:41.665Z,7.45
2022-10-22T14:10:17.126Z,7.60
2022-10-22T14:12:44.086Z,7.55
2022-10-22T14:15:13.616Z,7.78
2022-10-22T14:17:43.291Z,8.38
2022-10-22T14:20:22.405Z,7.50
2022-10-22T14:22:51.123Z,7.90
2022-10-22T14:25:20.855Z,7.22
2022-10-22T14:27:47.972Z,7.50
2022-10-22T14:30:20.775Z,6.82
2022-10-22T14:32:48.956Z,7.32
2022-10-22T14:35:21.594Z,6.82
2022-10-22T14:37:48.848Z,7.00
2022-10-22T14:40:18.385Z,7.68
2022-10-22T14:42:47.163Z,7.65
2022-10-22T14:45:24.496Z,7.03
2022-10-22T14:47:52.476Z,6.93
2022-10-22T14:50:19.530Z,6.70
2022-10-22T14:52:46.545Z,6.95
2022-10-22T14:55:15.735Z,6.95
2022-10-22T14:57:42.831Z,6.95
2022-10-22T15:00:13.460Z,6.60
2022-10-22T15:02:40.575Z,6.88
2022-10-22T15:05:08.125Z,6.68
2022-10-22T15:07:35.255Z,6.80
2022-10-22T15:10:02.409Z,7.22
2022-10-22T15:12:29.214Z,6.57
2022-10-22T15:14:56.113Z,6.53
2022-10-22T15:17:23.053Z,6.60
2022-10-22T15:19:49.906Z,7.28
2022-10-22T15:22:17.487Z,6.68
2022-10-22T15:24:44.862Z,6.55
2022-10-22T15:27:15.176Z,6.22
2022-10-22T15:29:42.855Z,6.57
2022-10-22T15:32:13.019Z,6.75
2022-10-22T15:34:40.647Z,6.57
2022-10-22T15:37:10.419Z,6.70
2022-10-22T15:39:41.081Z,7.00
2022-10-22T15:42:09.624Z,6.55
2022-10-22T15:44:37.501Z,6.80
2022-10-22T15:47:06.433Z,6.40
2022-10-22T15:49:36.230Z,6.38
2022-10-22T15:52:04.130Z,6.53
2022-10-22T15:54:31.918Z,5.70
2022-10-22T15:57:00.092Z,6.38
2022-10-22T15:59:27.021Z,6.60
2022-10-22T16:01:53.823Z,6.05
2022-10-22T16:04:20.724Z,6.30
2022-10-22T16:06:50.099Z,5.65
2022-10-22T16:09:19.343Z,6.00
2022-10-22T16:11:46.477Z,6.20
2022-10-22T16:14:15.785Z,6.30
2022-10-22T16:16:45.541Z,6.32
2022-10-22T16:19:14.379Z,6.10
2022-10-22T16:21:41.374Z,5.65
2022-10-22T16:24:09.351Z,6.35
2022-10-22T16:26:36.898Z,6.00
2022-10-22T16:29:05.178Z,6.25
2022-10-22T16:31:32.126Z,6.38
2022-10-22T16:33:58.953Z,6.55
2022-10-22T16:36:26.009Z,5.82
2022-10-22T16:38:52.800Z,5.65
2022-10-22T16:41:24.659Z,6.30
2022-10-22T16:43:55.212Z,6.80
2022-10-22T16:46:23.270Z,6.80
2022-10-22T16:48:52.263Z,6.00
2022-10-22T16:51:24.636Z,6.60
2022-10-22T16:53:52.517Z,6.40
2022-10-22T16:56:19.911Z,6.15
2022-10-22T16:58:48.967Z,6.07
2022-10-22T17:01:18.172Z,5.82
2022-10-22T17:03:45.859Z,0.20
2022-10-22T17:06:13.266Z,0.10
2022-10-22T17:08:41.097Z,0.10
2022-10-22T17:11:19.463Z,0.10
2022-10-22T17:13:52.765Z,0.10
2022-10-22T17:16:21.848Z,0.10
2022-10-22T17:18:49.435Z,0.10
2022-10-22T17:21:17.421Z,0.10
2022-10-22T17:23:44.617Z,0.10
2022-10-22T17:26:22.200Z,0.10
2022-10-22T17:28:49.477Z,0.10
2022-10-22T17:31:20.990Z,0.10
2022-10-22T17:33:49.360Z,0.10
2022-10-22T17:36:18.096Z,0.10
2022-10-22T17:38:49.481Z,0.10
2022-10-22T17:41:19.653Z,0.10
2022-10-22T17:43:47.260Z,0.10
2022-10-22T17:46:24.941Z,0.10
2022-10-22T17:48:52.640Z,0.10
2022-10-22T17:51:21.238Z,0.10
2022-10-22T17:53:50.804Z,0.10
2022-10-22T17:56:20.987Z,0.10
2022-10-22T17:58:48.305Z,0.10
2022-10-22T18:01:28.781Z,0.10
2022-10-22T18:04:00.325Z,0.10
2022-10-22T18:06:28.030Z,0.10
2022-10-22T18:08:54.837Z,0.55
2022-10-22T18:11:24.226Z,0.10
2022-10-22T18:13:52.555Z,0.10
2022-10-22T18:16:20.272Z,0.10
2022-10-22T18:18:48.358Z,0.10
2022-10-22T18:21:16.528Z,0.40
2022-10-22T18:23:43.496Z,0.10
2022-10-22T18:26:10.519Z,0.10
2022-10-22T18:28:37.439Z,0.10
2022-10-22T18:31:13.627Z,0.10
2022-10-22T18:33:41.180Z,0.10
2022-10-22T18:36:10.729Z,0.10
2022-10-22T18:38:41.036Z,0.10
2022-10-22T18:41:09.995Z,0.10
2022-10-22T18:43:37.332Z,0.10
2022-10-22T18:46:07.121Z,0.10
2022-10-22T18:48:35.802Z,0.10
2022-10-22T18:51:08.331Z,0.10
2022-10-22T18:53:37.354Z,0.10
2022-10-22T18:56:09.207Z,1.98
2022-10-22T18:58:40.540Z,0.10
2022-10-22T19:01:13.200Z,0.10
2022-10-22T19:03:41.661Z,0.10
2022-10-22T19:06:08.809Z,0.10
2022-10-22T19:08:36.734Z,0.10
2022-10-22T19:11:10.550Z,0.10
2022-10-22T19:13:37.710Z,0.10
2022-10-22T19:16:07.258Z,0.00
2022-10-22T19:18:35.159Z,0.10
2022-10-22T19:21:02.773Z,0.10
2022-10-22T19:23:30.667Z,0.10
2022-10-22T19:26:10.392Z,0.10
2022-10-22T19:28:39.279Z,0.10
2022-10-22T19:31:07.972Z,0.10
2022-10-22T19:33:36.774Z,21.65
2022-10-22T19:36:05.242Z,0.10
2022-10-22T19:38:32.283Z,0.10
2022-10-22T19:40:59.160Z,0.10
2022-10-22T19:43:26.654Z,0.10
2022-10-22T19:45:53.485Z,0.10
2022-10-22T19:48:20.365Z,0.10
2022-10-22T19:50:47.900Z,0.10
2022-10-22T19:53:14.840Z,0.10
2022-10-22T19:55:45.228Z,0.10
2022-10-22T19:58:12.606Z,0.10
2022-10-22T20:00:39.590Z,0.10
2022-10-22T20:03:06.487Z,0.63
2022-10-22T20:05:33.902Z,0.10
2022-10-22T20:08:00.793Z,0.10
2022-10-22T20:10:27.891Z,0.90
2022-10-22T20:12:54.714Z,0.10
2022-10-22T20:15:21.650Z,0.10
2022-10-22T20:17:48.640Z,0.10
2022-10-22T20:20:15.619Z,0.10
2022-10-22T20:22:43.551Z,0.30
2022-10-22T20:25:12.016Z,0.10
2022-10-22T20:27:39.213Z,0.10
2022-10-22T20:30:07.425Z,0.10
2022-10-22T20:32:37.865Z,0.10
2022-10-22T20:35:06.687Z,0.10
2022-10-22T20:37:34.293Z,0.10
2022-10-22T20:40:01.098Z,0.10
2022-10-22T20:42:28.047Z,0.10
2022-10-22T20:44:54.921Z,0.10
2022-10-22T20:47:24.781Z,0.10
2022-10-22T20:49:57.437Z,0.10
2022-10-22T20:52:24.402Z,0.10
2022-10-22T20:54:51.358Z,0.10
2022-10-22T20:57:18.412Z,0.10
2022-10-22T20:59:45.446Z,0.10
2022-10-22T21:02:12.905Z,0.10
2022-10-22T21:04:42.696Z,0.10
2022-10-22T21:07:12.384Z,0.10
2022-10-22T21:09:39.676Z,0.10
2022-10-22T21:12:06.705Z,0.10
2022-10-22T21:14:33.630Z,0.10
2022-10-22T21:17:00.533Z,0.10
2022-10-22T21:19:27.474Z,0.10
2022-10-22T21:21:54.344Z,0.10
2022-10-22T21:24:24.838Z,0.10
2022-10-22T21:26:52.846Z,0.10
2022-10-22T21:29:20.580Z,0.10
2022-10-22T21:31:47.773Z,0.10
2022-10-22T21:34:15.074Z,0.10
2022-10-22T21:36:42.717Z,0.10
2022-10-22T21:39:09.748Z,0.10
2022-10-22T21:41:37.580Z,0.10
2022-10-22T21:44:04.565Z,0.10
2022-10-22T21:46:31.671Z,0.10
2022-10-22T21:49:04.264Z,0.10
2022-10-22T21:51:33.834Z,0.10
2022-10-22T21:54:01.160Z,0.10
2022-10-22T21:56:32.787Z,0.10
2022-10-22T21:59:00.564Z,1.55
2022-10-22T22:01:27.446Z,0.10
2022-10-22T22:03:54.343Z,0.20
2022-10-22T22:06:23.989Z,0.10
2022-10-22T22:08:53.277Z,0.10
2022-10-22T22:11:26.078Z,0.10
2022-10-22T22:13:54.385Z,0.10
2022-10-22T22:16:27.282Z,3.92
2022-10-22T22:18:57.332Z,0.10
2022-10-22T22:21:24.409Z,0.10
2022-10-22T22:23:51.698Z,0.10
2022-10-22T22:26:25.293Z,0.65
2022-10-22T22:28:55.859Z,0.10
2022-10-22T22:31:25.099Z,0.10
2022-10-22T22:34:03.279Z,0.10
2022-10-22T22:36:37.922Z,0.10
2022-10-22T22:39:06.709Z,0.10
2022-10-22T22:41:33.781Z,0.10
2022-10-22T22:44:00.650Z,0.10
2022-10-22T22:46:27.583Z,0.10
2022-10-22T22:48:54.808Z,0.10
2022-10-22T22:51:22.652Z,0.10
2022-10-22T22:53:49.707Z,0.10
2022-10-22T22:56:22.483Z,0.10
2022-10-22T22:58:49.845Z,0.10
2022-10-22T23:01:16.769Z,0.10
2022-10-22T23:03:45.852Z,0.10
2022-10-22T23:06:13.580Z,0.10
2022-10-22T23:08:40.868Z,0.10
2022-10-22T23:11:13.474Z,0.10
2022-10-22T23:13:41.553Z,0.10
2022-10-22T23:16:14.177Z,0.10
2022-10-22T23:18:41.533Z,0.10
2022-10-22T23:21:20.831Z,0.10
2022-10-22T23:23:55.118Z,0.10
2022-10-22T23:26:31.051Z,0.10
2022-10-22T23:29:11.067Z,0.10
2022-10-22T23:31:38.308Z,0.10
2022-10-22T23:34:06.518Z,0.25
2022-10-22T23:36:35.981Z,0.10
2022-10-22T23:39:10.785Z,0.10
2022-10-22T23:41:37.882Z,0.10
2022-10-22T23:44:05.941Z,0.10
2022-10-22T23:46:33.539Z,0.10
2022-10-22T23:49:01.364Z,0.10
2022-10-22T23:51:28.497Z,0.10
2022-10-22T23:53:58.322Z,0.10
2022-10-22T23:56:26.599Z,0.10
2022-10-22T23:58:54.418Z,0.10
